sensor_id;sensor_type;location;lat;lon;timestamp;temperature;humidity
76291;DHT22;65100;46.884;17.410;2023-12-20T00:00:36;-0.97;80.29
76291;DHT22;65100;46.884;17.410;2023-12-20T00:03:02;-1.01;80.65
76291;DHT22;65100;46.884;17.410;2023-12-20T00:05:28;-1.19;80.47
76291;DHT22;65100;46.884;17.410;2023-12-20T00:07:53;-1.30;81.64
76291;DHT22;65100;46.884;17.410;2023-12-20T00:10:19;-1.25;81.99
76291;DHT22;65100;46.884;17.410;2023-12-20T00:12:44;-1.48;82.54
76291;DHT22;65100;46.884;17.410;2023-12-20T00:15:10;-1.38;83.25
76291;DHT22;65100;46.884;17.410;2023-12-20T00:17:35;-1.34;83.23
76291;DHT22;65100;46.884;17.410;2023-12-20T00:20:01;-1.14;82.24
76291;DHT22;65100;46.884;17.410;2023-12-20T00:22:26;-1.22;81.03
76291;DHT22;65100;46.884;17.410;2023-12-20T00:24:52;-1.07;80.03
76291;DHT22;65100;46.884;17.410;2023-12-20T00:27:17;-1.15;79.52
76291;DHT22;65100;46.884;17.410;2023-12-20T00:29:42;-1.52;80.85
76291;DHT22;65100;46.884;17.410;2023-12-20T00:32:12;-1.79;84.59
76291;DHT22;65100;46.884;17.410;2023-12-20T00:34:38;-1.51;87.51
76291;DHT22;65100;46.884;17.410;2023-12-20T00:37:04;-1.15;88.11
76291;DHT22;65100;46.884;17.410;2023-12-20T00:39:29;-1.31;87.71
76291;DHT22;65100;46.884;17.410;2023-12-20T00:41:54;-1.47;87.20
76291;DHT22;65100;46.884;17.410;2023-12-20T00:44:20;-1.48;85.19
76291;DHT22;65100;46.884;17.410;2023-12-20T00:46:45;-1.56;83.88
76291;DHT22;65100;46.884;17.410;2023-12-20T00:49:11;-1.62;83.62
76291;DHT22;65100;46.884;17.410;2023-12-20T00:51:36;-1.72;84.49
76291;DHT22;65100;46.884;17.410;2023-12-20T00:54:01;-1.68;84.61
76291;DHT22;65100;46.884;17.410;2023-12-20T00:56:27;-1.48;83.11
76291;DHT22;65100;46.884;17.410;2023-12-20T00:58:53;-1.68;84.70
76291;DHT22;65100;46.884;17.410;2023-12-20T01:01:18;-1.87;86.54
76291;DHT22;65100;46.884;17.410;2023-12-20T01:03:43;-1.90;87.82
76291;DHT22;65100;46.884;17.410;2023-12-20T01:06:09;-2.14;91.44
76291;DHT22;65100;46.884;17.410;2023-12-20T01:08:34;-2.00;92.51
76291;DHT22;65100;46.884;17.410;2023-12-20T01:11:00;-2.09;91.55
76291;DHT22;65100;46.884;17.410;2023-12-20T01:13:25;-2.03;90.62
76291;DHT22;65100;46.884;17.410;2023-12-20T01:15:51;-2.20;92.39
76291;DHT22;65100;46.884;17.410;2023-12-20T01:18:16;-1.92;91.03
76291;DHT22;65100;46.884;17.410;2023-12-20T01:20:42;-2.02;90.80
76291;DHT22;65100;46.884;17.410;2023-12-20T01:23:07;-1.82;89.83
76291;DHT22;65100;46.884;17.410;2023-12-20T01:25:33;-1.96;90.44
76291;DHT22;65100;46.884;17.410;2023-12-20T01:27:58;-1.72;90.02
76291;DHT22;65100;46.884;17.410;2023-12-20T01:30:24;-1.59;88.37
76291;DHT22;65100;46.884;17.410;2023-12-20T01:32:49;-1.44;87.03
76291;DHT22;65100;46.884;17.410;2023-12-20T01:35:15;-1.31;86.78
76291;DHT22;65100;46.884;17.410;2023-12-20T01:37:40;-1.32;86.68
76291;DHT22;65100;46.884;17.410;2023-12-20T01:40:06;-1.56;87.47
76291;DHT22;65100;46.884;17.410;2023-12-20T01:42:31;-1.52;87.75
76291;DHT22;65100;46.884;17.410;2023-12-20T01:44:57;-1.28;87.09
76291;DHT22;65100;46.884;17.410;2023-12-20T01:47:22;-1.05;86.14
76291;DHT22;65100;46.884;17.410;2023-12-20T01:49:49;-1.07;86.45
76291;DHT22;65100;46.884;17.410;2023-12-20T01:52:14;-0.93;86.43
76291;DHT22;65100;46.884;17.410;2023-12-20T01:54:40;-0.77;86.27
76291;DHT22;65100;46.884;17.410;2023-12-20T01:57:07;-0.79;86.54
76291;DHT22;65100;46.884;17.410;2023-12-20T01:59:33;-0.93;87.45
76291;DHT22;65100;46.884;17.410;2023-12-20T02:01:59;-1.11;88.60
76291;DHT22;65100;46.884;17.410;2023-12-20T02:04:25;-0.83;88.34
76291;DHT22;65100;46.884;17.410;2023-12-20T02:06:52;-0.93;88.36
76291;DHT22;65100;46.884;17.410;2023-12-20T02:09:18;-1.25;89.45
76291;DHT22;65100;46.884;17.410;2023-12-20T02:11:43;-1.41;90.64
76291;DHT22;65100;46.884;17.410;2023-12-20T02:14:09;-0.88;90.39
76291;DHT22;65100;46.884;17.410;2023-12-20T02:16:34;-0.67;88.99
76291;DHT22;65100;46.884;17.410;2023-12-20T02:19:00;-0.91;89.71
76291;DHT22;65100;46.884;17.410;2023-12-20T02:21:31;-0.87;90.02
76291;DHT22;65100;46.884;17.410;2023-12-20T02:23:57;-1.22;91.78
76291;DHT22;65100;46.884;17.410;2023-12-20T02:26:22;-0.85;90.89
76291;DHT22;65100;46.884;17.410;2023-12-20T02:28:47;-0.84;90.84
76291;DHT22;65100;46.884;17.410;2023-12-20T02:31:13;-0.79;91.51
76291;DHT22;65100;46.884;17.410;2023-12-20T02:33:38;-0.83;91.97
76291;DHT22;65100;46.884;17.410;2023-12-20T02:36:06;-0.94;92.61
76291;DHT22;65100;46.884;17.410;2023-12-20T02:38:31;-0.97;93.37
76291;DHT22;65100;46.884;17.410;2023-12-20T02:40:57;-0.90;93.47
76291;DHT22;65100;46.884;17.410;2023-12-20T02:43:22;-0.84;92.90
76291;DHT22;65100;46.884;17.410;2023-12-20T02:45:48;-0.69;92.18
76291;DHT22;65100;46.884;17.410;2023-12-20T02:48:13;-0.94;92.45
76291;DHT22;65100;46.884;17.410;2023-12-20T02:50:38;-1.00;93.48
76291;DHT22;65100;46.884;17.410;2023-12-20T02:53:04;-0.85;93.76
76291;DHT22;65100;46.884;17.410;2023-12-20T02:55:29;-0.59;92.90
76291;DHT22;65100;46.884;17.410;2023-12-20T02:57:55;-0.61;92.30
76291;DHT22;65100;46.884;17.410;2023-12-20T03:00:20;-0.60;92.53
76291;DHT22;65100;46.884;17.410;2023-12-20T03:02:45;-0.69;93.06
76291;DHT22;65100;46.884;17.410;2023-12-20T03:05:11;-0.60;92.67
76291;DHT22;65100;46.884;17.410;2023-12-20T03:07:37;-0.60;92.34
76291;DHT22;65100;46.884;17.410;2023-12-20T03:10:04;-0.29;91.94
76291;DHT22;65100;46.884;17.410;2023-12-20T03:12:29;-0.07;90.66
76291;DHT22;65100;46.884;17.410;2023-12-20T03:14:55;0.05;90.57
76291;DHT22;65100;46.884;17.410;2023-12-20T03:17:20;0.28;88.95
76291;DHT22;65100;46.884;17.410;2023-12-20T03:19:46;0.19;89.19
76291;DHT22;65100;46.884;17.410;2023-12-20T03:22:11;-0.09;90.17
76291;DHT22;65100;46.884;17.410;2023-12-20T03:24:37;-0.20;90.65
76291;DHT22;65100;46.884;17.410;2023-12-20T03:27:02;0.14;90.10
76291;DHT22;65100;46.884;17.410;2023-12-20T03:29:28;0.29;88.90
76291;DHT22;65100;46.884;17.410;2023-12-20T03:31:53;0.33;89.11
76291;DHT22;65100;46.884;17.410;2023-12-20T03:34:19;0.33;89.21
76291;DHT22;65100;46.884;17.410;2023-12-20T03:36:44;0.37;88.83
76291;DHT22;65100;46.884;17.410;2023-12-20T03:39:13;0.26;89.43
76291;DHT22;65100;46.884;17.410;2023-12-20T03:41:38;0.45;88.95
76291;DHT22;65100;46.884;17.410;2023-12-20T03:44:03;0.62;87.84
76291;DHT22;65100;46.884;17.410;2023-12-20T03:46:29;0.52;87.55
76291;DHT22;65100;46.884;17.410;2023-12-20T03:48:54;0.53;87.86
76291;DHT22;65100;46.884;17.410;2023-12-20T03:51:20;0.59;87.87
76291;DHT22;65100;46.884;17.410;2023-12-20T03:53:45;0.52;88.00
76291;DHT22;65100;46.884;17.410;2023-12-20T03:56:11;0.48;88.16
76291;DHT22;65100;46.884;17.410;2023-12-20T03:58:36;0.26;89.01
76291;DHT22;65100;46.884;17.410;2023-12-20T04:01:01;0.22;88.86
76291;DHT22;65100;46.884;17.410;2023-12-20T04:03:27;-0.06;90.45
76291;DHT22;65100;46.884;17.410;2023-12-20T04:05:53;-0.07;91.04
76291;DHT22;65100;46.884;17.410;2023-12-20T04:08:19;-0.25;91.48
76291;DHT22;65100;46.884;17.410;2023-12-20T04:10:45;-0.25;91.52
76291;DHT22;65100;46.884;17.410;2023-12-20T04:13:10;-0.18;91.76
76291;DHT22;65100;46.884;17.410;2023-12-20T04:15:36;0.14;89.18
76291;DHT22;65100;46.884;17.410;2023-12-20T04:18:01;-0.20;90.03
76291;DHT22;65100;46.884;17.410;2023-12-20T04:20:27;-0.49;91.05
76291;DHT22;65100;46.884;17.410;2023-12-20T04:22:52;-0.34;91.93
76291;DHT22;65100;46.884;17.410;2023-12-20T04:25:38;-0.22;90.93
76291;DHT22;65100;46.884;17.410;2023-12-20T04:28:24;0.05;90.45
76291;DHT22;65100;46.884;17.410;2023-12-20T04:30:50;0.22;90.14
76291;DHT22;65100;46.884;17.410;2023-12-20T04:33:15;-0.52;92.52
76291;DHT22;65100;46.884;17.410;2023-12-20T04:35:41;-0.29;93.11
76291;DHT22;65100;46.884;17.410;2023-12-20T04:38:08;-0.15;92.37
76291;DHT22;65100;46.884;17.410;2023-12-20T04:40:34;-0.48;91.69
76291;DHT22;65100;46.884;17.410;2023-12-20T04:42:59;-0.44;91.39
76291;DHT22;65100;46.884;17.410;2023-12-20T04:45:25;-0.40;92.91
76291;DHT22;65100;46.884;17.410;2023-12-20T04:47:51;-0.59;93.46
76291;DHT22;65100;46.884;17.410;2023-12-20T04:50:16;-0.74;94.03
76291;DHT22;65100;46.884;17.410;2023-12-20T04:52:42;-0.70;94.23
76291;DHT22;65100;46.884;17.410;2023-12-20T04:55:07;-0.41;92.78
76291;DHT22;65100;46.884;17.410;2023-12-20T04:57:34;-0.18;91.94
76291;DHT22;65100;46.884;17.410;2023-12-20T05:00:00;-0.16;90.24
76291;DHT22;65100;46.884;17.410;2023-12-20T05:02:25;-0.18;90.93
76291;DHT22;65100;46.884;17.410;2023-12-20T05:04:51;-0.22;90.39
76291;DHT22;65100;46.884;17.410;2023-12-20T05:07:16;-0.22;91.01
76291;DHT22;65100;46.884;17.410;2023-12-20T05:09:41;-0.56;92.49
76291;DHT22;65100;46.884;17.410;2023-12-20T05:12:07;-0.43;93.69
76291;DHT22;65100;46.884;17.410;2023-12-20T05:14:33;-0.29;91.90
76291;DHT22;65100;46.884;17.410;2023-12-20T05:16:58;-0.54;92.09
76291;DHT22;65100;46.884;17.410;2023-12-20T05:19:24;-0.40;92.32
76291;DHT22;65100;46.884;17.410;2023-12-20T05:21:49;-0.18;93.29
76291;DHT22;65100;46.884;17.410;2023-12-20T05:24:15;-0.03;93.24
76291;DHT22;65100;46.884;17.410;2023-12-20T05:26:40;-0.30;93.23
76291;DHT22;65100;46.884;17.410;2023-12-20T05:29:06;-0.61;92.51
76291;DHT22;65100;46.884;17.410;2023-12-20T05:31:31;0.35;94.31
76291;DHT22;65100;46.884;17.410;2023-12-20T05:33:57;0.16;91.13
76291;DHT22;65100;46.884;17.410;2023-12-20T05:36:23;0.55;92.39
76291;DHT22;65100;46.884;17.410;2023-12-20T05:38:48;0.53;88.24
76291;DHT22;65100;46.884;17.410;2023-12-20T05:41:14;-0.37;88.89
76291;DHT22;65100;46.884;17.410;2023-12-20T05:43:39;-0.46;90.81
76291;DHT22;65100;46.884;17.410;2023-12-20T05:46:05;-0.63;90.47
76291;DHT22;65100;46.884;17.410;2023-12-20T05:48:30;-0.16;91.75
76291;DHT22;65100;46.884;17.410;2023-12-20T05:50:56;-0.30;92.60
76291;DHT22;65100;46.884;17.410;2023-12-20T05:53:21;-0.57;91.54
76291;DHT22;65100;46.884;17.410;2023-12-20T05:55:46;-0.93;92.80
76291;DHT22;65100;46.884;17.410;2023-12-20T05:58:12;-0.87;93.57
76291;DHT22;65100;46.884;17.410;2023-12-20T06:00:38;-0.01;95.34
76291;DHT22;65100;46.884;17.410;2023-12-20T06:03:03;0.41;93.13
76291;DHT22;65100;46.884;17.410;2023-12-20T06:05:30;0.01;91.17
76291;DHT22;65100;46.884;17.410;2023-12-20T06:07:56;0.09;93.30
76291;DHT22;65100;46.884;17.410;2023-12-20T06:10:26;0.25;92.84
76291;DHT22;65100;46.884;17.410;2023-12-20T06:12:52;0.14;90.79
76291;DHT22;65100;46.884;17.410;2023-12-20T06:15:17;-0.19;89.17
76291;DHT22;65100;46.884;17.410;2023-12-20T06:17:43;-0.60;90.75
76291;DHT22;65100;46.884;17.410;2023-12-20T06:20:09;0.04;94.09
76291;DHT22;65100;46.884;17.410;2023-12-20T06:22:35;0.28;92.82
76291;DHT22;65100;46.884;17.410;2023-12-20T06:25:02;0.42;92.97
76291;DHT22;65100;46.884;17.410;2023-12-20T06:27:28;-0.15;90.27
76291;DHT22;65100;46.884;17.410;2023-12-20T06:29:54;0.24;92.14
76291;DHT22;65100;46.884;17.410;2023-12-20T06:32:19;-0.37;90.52
76291;DHT22;65100;46.884;17.410;2023-12-20T06:34:45;0.02;93.16
76291;DHT22;65100;46.884;17.410;2023-12-20T06:37:10;0.19;88.43
76291;DHT22;65100;46.884;17.410;2023-12-20T06:39:36;0.06;87.00
76291;DHT22;65100;46.884;17.410;2023-12-20T06:42:01;0.21;89.75
76291;DHT22;65100;46.884;17.410;2023-12-20T06:44:27;0.69;87.64
76291;DHT22;65100;46.884;17.410;2023-12-20T06:46:52;0.69;86.94
76291;DHT22;65100;46.884;17.410;2023-12-20T06:49:18;0.55;86.08
76291;DHT22;65100;46.884;17.410;2023-12-20T06:51:44;0.46;88.29
76291;DHT22;65100;46.884;17.410;2023-12-20T06:54:09;0.65;89.28
76291;DHT22;65100;46.884;17.410;2023-12-20T06:56:35;0.96;90.17
76291;DHT22;65100;46.884;17.410;2023-12-20T06:59:00;1.12;89.88
76291;DHT22;65100;46.884;17.410;2023-12-20T07:01:26;1.16;88.55
76291;DHT22;65100;46.884;17.410;2023-12-20T07:03:52;0.76;84.71
76291;DHT22;65100;46.884;17.410;2023-12-20T07:06:22;0.58;85.10
76291;DHT22;65100;46.884;17.410;2023-12-20T07:08:48;0.29;88.00
76291;DHT22;65100;46.884;17.410;2023-12-20T07:11:13;0.11;90.28
76291;DHT22;65100;46.884;17.410;2023-12-20T07:13:41;0.69;90.50
76291;DHT22;65100;46.884;17.410;2023-12-20T07:16:07;0.38;86.94
76291;DHT22;65100;46.884;17.410;2023-12-20T07:18:32;-0.34;88.45
76291;DHT22;65100;46.884;17.410;2023-12-20T07:20:58;-0.48;88.80
76291;DHT22;65100;46.884;17.410;2023-12-20T07:23:23;-0.63;89.31
76291;DHT22;65100;46.884;17.410;2023-12-20T07:25:51;-0.71;89.92
76291;DHT22;65100;46.884;17.410;2023-12-20T07:28:16;-0.74;90.25
76291;DHT22;65100;46.884;17.410;2023-12-20T07:30:42;-0.90;91.50
76291;DHT22;65100;46.884;17.410;2023-12-20T07:33:07;-0.81;92.11
76291;DHT22;65100;46.884;17.410;2023-12-20T07:35:35;-0.76;91.61
76291;DHT22;65100;46.884;17.410;2023-12-20T07:38:01;-0.71;91.57
76291;DHT22;65100;46.884;17.410;2023-12-20T07:40:31;-0.50;91.04
76291;DHT22;65100;46.884;17.410;2023-12-20T07:42:57;-0.83;91.26
76291;DHT22;65100;46.884;17.410;2023-12-20T07:45:27;-0.84;92.75
76291;DHT22;65100;46.884;17.410;2023-12-20T07:47:52;-0.22;94.81
76291;DHT22;65100;46.884;17.410;2023-12-20T07:50:18;0.19;94.27
76291;DHT22;65100;46.884;17.410;2023-12-20T07:52:56;0.79;93.11
76291;DHT22;65100;46.884;17.410;2023-12-20T07:55:22;0.09;91.38
76291;DHT22;65100;46.884;17.410;2023-12-20T07:57:47;0.69;91.61
76291;DHT22;65100;46.884;17.410;2023-12-20T08:00:17;0.99;89.17
76291;DHT22;65100;46.884;17.410;2023-12-20T08:02:43;0.84;87.34
76291;DHT22;65100;46.884;17.410;2023-12-20T08:05:09;0.90;87.03
76291;DHT22;65100;46.884;17.410;2023-12-20T08:07:35;0.90;87.05
76291;DHT22;65100;46.884;17.410;2023-12-20T08:10:01;0.49;88.21
76291;DHT22;65100;46.884;17.410;2023-12-20T08:12:26;0.58;88.80
76291;DHT22;65100;46.884;17.410;2023-12-20T08:14:54;0.94;89.31
76291;DHT22;65100;46.884;17.410;2023-12-20T08:17:28;1.08;88.33
76291;DHT22;65100;46.884;17.410;2023-12-20T08:19:57;1.04;87.12
76291;DHT22;65100;46.884;17.410;2023-12-20T08:22:25;0.70;87.32
76291;DHT22;65100;46.884;17.410;2023-12-20T08:24:52;0.70;87.86
76291;DHT22;65100;46.884;17.410;2023-12-20T08:27:18;0.39;89.58
76291;DHT22;65100;46.884;17.410;2023-12-20T08:29:44;0.22;90.55
76291;DHT22;65100;46.884;17.410;2023-12-20T08:32:10;0.28;90.96
76291;DHT22;65100;46.884;17.410;2023-12-20T08:34:36;0.44;89.56
76291;DHT22;65100;46.884;17.410;2023-12-20T08:37:02;0.35;89.60
76291;DHT22;65100;46.884;17.410;2023-12-20T08:39:28;0.53;90.45
76291;DHT22;65100;46.884;17.410;2023-12-20T08:41:55;0.72;89.64
76291;DHT22;65100;46.884;17.410;2023-12-20T08:44:20;0.94;88.19
76291;DHT22;65100;46.884;17.410;2023-12-20T08:46:47;1.04;90.32
76291;DHT22;65100;46.884;17.410;2023-12-20T08:49:13;0.97;91.61
76291;DHT22;65100;46.884;17.410;2023-12-20T08:51:39;1.26;91.99
76291;DHT22;65100;46.884;17.410;2023-12-20T08:54:06;1.38;91.17
76291;DHT22;65100;46.884;17.410;2023-12-20T08:56:33;1.61;89.93
76291;DHT22;65100;46.884;17.410;2023-12-20T08:58:59;1.67;86.96
76291;DHT22;65100;46.884;17.410;2023-12-20T09:01:27;1.27;87.27
76291;DHT22;65100;46.884;17.410;2023-12-20T09:03:53;1.50;90.97
76291;DHT22;65100;46.884;17.410;2023-12-20T09:06:19;1.50;88.08
76291;DHT22;65100;46.884;17.410;2023-12-20T09:08:45;1.51;87.56
76291;DHT22;65100;46.884;17.410;2023-12-20T09:11:12;1.12;88.58
76291;DHT22;65100;46.884;17.410;2023-12-20T09:13:40;1.44;89.05
76291;DHT22;65100;46.884;17.410;2023-12-20T09:16:05;1.57;87.55
76291;DHT22;65100;46.884;17.410;2023-12-20T09:18:31;1.60;88.21
76291;DHT22;65100;46.884;17.410;2023-12-20T09:20:57;1.31;88.16
76291;DHT22;65100;46.884;17.410;2023-12-20T09:23:23;1.07;89.18
76291;DHT22;65100;46.884;17.410;2023-12-20T09:25:49;1.38;89.52
76291;DHT22;65100;46.884;17.410;2023-12-20T09:28:15;1.27;88.76
76291;DHT22;65100;46.884;17.410;2023-12-20T09:30:40;1.07;89.27
76291;DHT22;65100;46.884;17.410;2023-12-20T09:33:06;1.28;89.40
76291;DHT22;65100;46.884;17.410;2023-12-20T09:35:32;1.60;89.09
76291;DHT22;65100;46.884;17.410;2023-12-20T09:37:58;1.51;88.89
76291;DHT22;65100;46.884;17.410;2023-12-20T09:40:26;1.91;89.18
76291;DHT22;65100;46.884;17.410;2023-12-20T09:43:03;2.08;91.23
76291;DHT22;65100;46.884;17.410;2023-12-20T09:45:30;2.02;91.41
76291;DHT22;65100;46.884;17.410;2023-12-20T09:47:57;2.15;90.45
76291;DHT22;65100;46.884;17.410;2023-12-20T09:50:23;1.71;90.63
76291;DHT22;65100;46.884;17.410;2023-12-20T09:52:53;1.97;90.69
76291;DHT22;65100;46.884;17.410;2023-12-20T09:55:19;2.06;89.79
76291;DHT22;65100;46.884;17.410;2023-12-20T09:57:46;2.25;90.14
76291;DHT22;65100;46.884;17.410;2023-12-20T10:00:12;2.50;90.72
76291;DHT22;65100;46.884;17.410;2023-12-20T10:02:45;2.57;86.93
76291;DHT22;65100;46.884;17.410;2023-12-20T10:05:16;2.75;89.14
76291;DHT22;65100;46.884;17.410;2023-12-20T10:07:44;2.93;90.23
76291;DHT22;65100;46.884;17.410;2023-12-20T10:10:10;2.70;88.20
76291;DHT22;65100;46.884;17.410;2023-12-20T10:12:37;2.60;88.37
76291;DHT22;65100;46.884;17.410;2023-12-20T10:15:04;2.60;87.98
76291;DHT22;65100;46.884;17.410;2023-12-20T10:17:29;2.77;87.16
76291;DHT22;65100;46.884;17.410;2023-12-20T10:19:55;2.76;88.13
76291;DHT22;65100;46.884;17.410;2023-12-20T10:22:21;3.01;86.81
76291;DHT22;65100;46.884;17.410;2023-12-20T10:24:47;2.82;87.87
76291;DHT22;65100;46.884;17.410;2023-12-20T10:27:12;3.32;89.01
76291;DHT22;65100;46.884;17.410;2023-12-20T10:29:38;3.39;87.14
76291;DHT22;65100;46.884;17.410;2023-12-20T10:32:36;2.89;87.13
76291;DHT22;65100;46.884;17.410;2023-12-20T10:35:05;2.75;87.51
76291;DHT22;65100;46.884;17.410;2023-12-20T10:37:31;3.23;86.97
76291;DHT22;65100;46.884;17.410;2023-12-20T10:40:03;3.08;88.54
76291;DHT22;65100;46.884;17.410;2023-12-20T10:42:32;2.77;88.90
76291;DHT22;65100;46.884;17.410;2023-12-20T10:45:00;2.60;89.89
76291;DHT22;65100;46.884;17.410;2023-12-20T10:47:26;3.04;90.91
76291;DHT22;65100;46.884;17.410;2023-12-20T10:49:54;3.32;89.88
76291;DHT22;65100;46.884;17.410;2023-12-20T10:52:23;3.06;89.32
76291;DHT22;65100;46.884;17.410;2023-12-20T10:54:50;3.41;92.26
76291;DHT22;65100;46.884;17.410;2023-12-20T10:57:18;3.31;90.84
76291;DHT22;65100;46.884;17.410;2023-12-20T10:59:45;3.44;90.69
76291;DHT22;65100;46.884;17.410;2023-12-20T11:02:14;3.68;89.35
76291;DHT22;65100;46.884;17.410;2023-12-20T11:04:55;3.77;90.57
76291;DHT22;65100;46.884;17.410;2023-12-20T11:07:36;4.32;90.12
76291;DHT22;65100;46.884;17.410;2023-12-20T11:10:23;4.09;86.21
76291;DHT22;65100;46.884;17.410;2023-12-20T11:13:12;4.67;88.28
76291;DHT22;65100;46.884;17.410;2023-12-20T11:15:42;4.71;88.05
76291;DHT22;65100;46.884;17.410;2023-12-20T11:18:08;4.95;87.82
76291;DHT22;65100;46.884;17.410;2023-12-20T11:20:41;4.98;88.60
76291;DHT22;65100;46.884;17.410;2023-12-20T11:23:10;4.94;87.17
76291;DHT22;65100;46.884;17.410;2023-12-20T11:25:56;4.64;86.94
76291;DHT22;65100;46.884;17.410;2023-12-20T11:28:24;4.79;90.36
76291;DHT22;65100;46.884;17.410;2023-12-20T11:30:55;4.30;86.95
76291;DHT22;65100;46.884;17.410;2023-12-20T11:33:25;4.73;91.53
76291;DHT22;65100;46.884;17.410;2023-12-20T11:35:51;4.57;89.27
76291;DHT22;65100;46.884;17.410;2023-12-20T11:38:17;4.56;92.55
76291;DHT22;65100;46.884;17.410;2023-12-20T11:40:49;4.22;89.40
76291;DHT22;65100;46.884;17.410;2023-12-20T11:43:37;4.43;90.66
76291;DHT22;65100;46.884;17.410;2023-12-20T11:46:07;4.59;90.88
76291;DHT22;65100;46.884;17.410;2023-12-20T11:48:38;4.54;90.85
76291;DHT22;65100;46.884;17.410;2023-12-20T11:51:11;4.84;90.79
76291;DHT22;65100;46.884;17.410;2023-12-20T11:53:38;4.32;89.11
76291;DHT22;65100;46.884;17.410;2023-12-20T11:56:05;4.93;90.08
76291;DHT22;65100;46.884;17.410;2023-12-20T11:58:32;5.01;89.65
76291;DHT22;65100;46.884;17.410;2023-12-20T12:00:58;5.32;90.91
76291;DHT22;65100;46.884;17.410;2023-12-20T12:03:23;5.37;90.82
76291;DHT22;65100;46.884;17.410;2023-12-20T12:05:49;5.68;90.42
76291;DHT22;65100;46.884;17.410;2023-12-20T12:08:15;5.51;87.55
76291;DHT22;65100;46.884;17.410;2023-12-20T12:10:41;5.30;88.12
76291;DHT22;65100;46.884;17.410;2023-12-20T12:13:06;5.69;90.06
76291;DHT22;65100;46.884;17.410;2023-12-20T12:15:32;6.15;87.78
76291;DHT22;65100;46.884;17.410;2023-12-20T12:17:58;5.76;87.20
76291;DHT22;65100;46.884;17.410;2023-12-20T12:20:25;6.13;89.40
76291;DHT22;65100;46.884;17.410;2023-12-20T12:23:03;6.17;87.47
76291;DHT22;65100;46.884;17.410;2023-12-20T12:25:30;6.41;88.36
76291;DHT22;65100;46.884;17.410;2023-12-20T12:27:56;6.44;86.50
76291;DHT22;65100;46.884;17.410;2023-12-20T12:30:23;6.50;86.66
76291;DHT22;65100;46.884;17.410;2023-12-20T12:32:50;6.49;86.50
76291;DHT22;65100;46.884;17.410;2023-12-20T12:35:16;6.57;88.25
76291;DHT22;65100;46.884;17.410;2023-12-20T12:37:42;7.09;79.52
76291;DHT22;65100;46.884;17.410;2023-12-20T12:40:11;7.38;79.49
76291;DHT22;65100;46.884;17.410;2023-12-20T12:42:38;7.48;81.73
76291;DHT22;65100;46.884;17.410;2023-12-20T12:45:04;7.48;82.26
76291;DHT22;65100;46.884;17.410;2023-12-20T12:47:30;7.35;82.10
76291;DHT22;65100;46.884;17.410;2023-12-20T12:49:56;7.11;81.39
76291;DHT22;65100;46.884;17.410;2023-12-20T12:52:21;7.11;79.62
76291;DHT22;65100;46.884;17.410;2023-12-20T12:54:48;7.19;80.92
76291;DHT22;65100;46.884;17.410;2023-12-20T12:57:14;7.03;80.27
76291;DHT22;65100;46.884;17.410;2023-12-20T12:59:40;6.98;80.58
76291;DHT22;65100;46.884;17.410;2023-12-20T13:02:06;7.04;79.21
76291;DHT22;65100;46.884;17.410;2023-12-20T13:04:31;7.12;80.73
76291;DHT22;65100;46.884;17.410;2023-12-20T13:06:57;7.15;82.66
76291;DHT22;65100;46.884;17.410;2023-12-20T13:09:23;7.11;81.56
76291;DHT22;65100;46.884;17.410;2023-12-20T13:11:48;7.08;81.01
76291;DHT22;65100;46.884;17.410;2023-12-20T13:14:14;7.17;82.04
76291;DHT22;65100;46.884;17.410;2023-12-20T13:16:42;6.98;77.71
76291;DHT22;65100;46.884;17.410;2023-12-20T13:19:08;6.71;81.37
76291;DHT22;65100;46.884;17.410;2023-12-20T13:21:35;6.46;78.41
76291;DHT22;65100;46.884;17.410;2023-12-20T13:24:00;6.50;80.76
76291;DHT22;65100;46.884;17.410;2023-12-20T13:26:26;6.30;78.76
76291;DHT22;65100;46.884;17.410;2023-12-20T13:28:52;6.54;78.29
76291;DHT22;65100;46.884;17.410;2023-12-20T13:31:17;6.37;79.02
76291;DHT22;65100;46.884;17.410;2023-12-20T13:33:42;6.44;79.75
76291;DHT22;65100;46.884;17.410;2023-12-20T13:36:08;6.36;79.89
76291;DHT22;65100;46.884;17.410;2023-12-20T13:38:33;6.53;79.00
76291;DHT22;65100;46.884;17.410;2023-12-20T13:40:59;6.60;78.48
76291;DHT22;65100;46.884;17.410;2023-12-20T13:43:24;6.53;78.96
76291;DHT22;65100;46.884;17.410;2023-12-20T13:45:50;6.32;80.61
76291;DHT22;65100;46.884;17.410;2023-12-20T13:48:16;6.05;79.93
76291;DHT22;65100;46.884;17.410;2023-12-20T13:50:42;5.99;79.32
76291;DHT22;65100;46.884;17.410;2023-12-20T13:53:07;5.82;82.73
76291;DHT22;65100;46.884;17.410;2023-12-20T13:55:33;5.37;81.39
76291;DHT22;65100;46.884;17.410;2023-12-20T13:57:58;5.44;85.14
76291;DHT22;65100;46.884;17.410;2023-12-20T14:00:24;5.25;84.59
76291;DHT22;65100;46.884;17.410;2023-12-20T14:02:49;5.08;84.47
76291;DHT22;65100;46.884;17.410;2023-12-20T14:05:15;5.38;85.58
76291;DHT22;65100;46.884;17.410;2023-12-20T14:07:43;5.05;82.23
76291;DHT22;65100;46.884;17.410;2023-12-20T14:10:11;5.00;82.05
76291;DHT22;65100;46.884;17.410;2023-12-20T14:12:38;4.76;82.01
76291;DHT22;65100;46.884;17.410;2023-12-20T14:15:03;4.85;81.27
76291;DHT22;65100;46.884;17.410;2023-12-20T14:17:29;4.53;82.54
76291;DHT22;65100;46.884;17.410;2023-12-20T14:19:54;4.57;84.22
76291;DHT22;65100;46.884;17.410;2023-12-20T14:22:20;4.57;82.14
76291;DHT22;65100;46.884;17.410;2023-12-20T14:24:45;4.66;83.05
76291;DHT22;65100;46.884;17.410;2023-12-20T14:27:11;4.77;81.28
76291;DHT22;65100;46.884;17.410;2023-12-20T14:29:37;4.57;83.38
76291;DHT22;65100;46.884;17.410;2023-12-20T14:32:03;4.73;84.45
76291;DHT22;65100;46.884;17.410;2023-12-20T14:34:35;4.20;83.35
76291;DHT22;65100;46.884;17.410;2023-12-20T14:37:01;4.36;84.30
76291;DHT22;65100;46.884;17.410;2023-12-20T14:39:27;4.10;84.37
76291;DHT22;65100;46.884;17.410;2023-12-20T14:41:52;4.19;84.18
76291;DHT22;65100;46.884;17.410;2023-12-20T14:44:19;4.54;85.41
76291;DHT22;65100;46.884;17.410;2023-12-20T14:46:45;4.83;83.33
76291;DHT22;65100;46.884;17.410;2023-12-20T14:49:13;4.94;82.09
76291;DHT22;65100;46.884;17.410;2023-12-20T14:51:39;4.90;80.99
76291;DHT22;65100;46.884;17.410;2023-12-20T14:54:05;4.94;82.24
76291;DHT22;65100;46.884;17.410;2023-12-20T14:56:34;5.05;81.29
76291;DHT22;65100;46.884;17.410;2023-12-20T14:59:00;5.05;82.80
76291;DHT22;65100;46.884;17.410;2023-12-20T15:01:26;5.07;81.66
76291;DHT22;65100;46.884;17.410;2023-12-20T15:03:51;4.90;82.01
76291;DHT22;65100;46.884;17.410;2023-12-20T15:06:38;4.81;83.22
76291;DHT22;65100;46.884;17.410;2023-12-20T15:09:24;4.71;82.75
76291;DHT22;65100;46.884;17.410;2023-12-20T15:11:50;4.63;81.64
76291;DHT22;65100;46.884;17.410;2023-12-20T15:14:15;4.71;80.69
76291;DHT22;65100;46.884;17.410;2023-12-20T15:16:46;4.79;80.45
76291;DHT22;65100;46.884;17.410;2023-12-20T15:19:12;4.53;81.46
76291;DHT22;65100;46.884;17.410;2023-12-20T15:21:38;4.15;81.92